Time;durP1;ratioP1;P1;durP2;ratioP2;P2;SDS_P1;SDS_P2;PMS_P1;PMS_P2;Temp;Humidity;BMP_temperature;BMP_pressure;BME280_temperature;BME280_humidity;BME280_pressure;Samples;Min_cycle;Max_cycle;Signal;HPM_P1;HPM_P2
2022/05/06 00:01:07;;;;;;;22.05;14.02;;;10.20;99.90;;;;;;5034875;28;20051;-84
2022/05/06 00:03:33;;;;;;;25.63;14.90;;;10.20;99.90;;;;;;5031142;28;20033;-84
2022/05/06 00:05:58;;;;;;;24.25;14.77;;;10.10;99.90;;;;;;5041643;28;20125;-84
2022/05/06 00:08:25;;;;;;;25.15;14.88;;;10.20;99.90;;;;;;5031056;28;20036;-84
2022/05/06 00:10:51;;;;;;;24.95;14.55;;;10.10;99.90;;;;;;5033518;28;20060;-83
2022/05/06 00:13:17;;;;;;;23.38;14.98;;;10.10;99.90;;;;;;5035706;28;20501;-83
2022/05/06 00:15:43;;;;;;;22.77;13.95;;;10.10;99.90;;;;;;5048651;28;20131;-84
2022/05/06 00:18:08;;;;;;;23.50;13.95;;;10.00;99.90;;;;;;5059260;28;20520;-84
2022/05/06 00:20:34;;;;;;;23.25;14.30;;;10.00;99.90;;;;;;5030787;28;20029;-83
2022/05/06 00:23:00;;;;;;;24.60;14.95;;;10.00;99.90;;;;;;5043594;28;20101;-84
2022/05/06 00:25:27;;;;;;;24.48;14.55;;;9.90;99.90;;;;;;5054439;28;20139;-84
2022/05/06 00:27:54;;;;;;;23.15;13.80;;;9.90;99.90;;;;;;5045028;28;20486;-83
2022/05/06 00:30:20;;;;;;;21.55;14.00;;;9.80;99.90;;;;;;5057013;28;20469;-84
2022/05/06 00:32:45;;;;;;;22.02;12.88;;;9.80;99.90;;;;;;5015576;28;20067;-84
2022/05/06 00:35:11;;;;;;;22.08;14.02;;;9.70;99.90;;;;;;5042691;28;20051;-84
2022/05/06 00:37:37;;;;;;;21.88;13.45;;;9.70;99.90;;;;;;5030917;28;20535;-84
2022/05/06 00:40:03;;;;;;;22.27;13.93;;;9.60;99.90;;;;;;5043979;28;20041;-84
2022/05/06 00:42:29;;;;;;;22.17;13.65;;;9.60;99.90;;;;;;5039949;28;20052;-84
2022/05/06 00:44:54;;;;;;;21.77;13.25;;;9.50;99.90;;;;;;5040500;28;20041;-83
2022/05/06 00:47:22;;;;;;;23.13;13.73;;;9.50;99.90;;;;;;5048719;28;20651;-83
2022/05/06 00:49:48;;;;;;;21.33;13.10;;;9.50;99.90;;;;;;5056157;28;20052;-84
2022/05/06 00:52:16;;;;;;;21.75;13.63;;;9.50;99.90;;;;;;5047603;28;20041;-84
2022/05/06 00:54:43;;;;;;;21.63;13.52;;;9.50;99.90;;;;;;5031978;28;20040;-83
2022/05/06 00:57:09;;;;;;;21.25;13.45;;;9.50;99.90;;;;;;5044784;28;20528;-84
2022/05/06 01:00:17;;;;;;;22.67;13.98;;;9.50;99.90;;;;;;5033633;28;20037;-83
2022/05/06 01:02:23;;;;;;;22.42;13.32;;;9.40;99.90;;;;;;5038491;28;20175;-83
2022/05/06 01:04:50;;;;;;;22.10;14.02;;;9.40;99.90;;;;;;5045837;28;20486;-83
2022/05/06 01:07:17;;;;;;;21.95;12.18;;;9.30;99.90;;;;;;5044031;28;20044;-83
2022/05/06 01:09:43;;;;;;;20.42;12.55;;;9.30;99.90;;;;;;5039310;28;20064;-84
2022/05/06 01:12:09;;;;;;;19.73;12.15;;;9.30;99.90;;;;;;5026022;28;20079;-84
2022/05/06 01:14:35;;;;;;;21.02;12.90;;;9.30;99.90;;;;;;5038147;28;20064;-84
2022/05/06 01:17:01;;;;;;;20.25;12.70;;;9.30;99.90;;;;;;5045546;28;20041;-84
2022/05/06 01:19:27;;;;;;;21.13;13.00;;;9.50;99.90;;;;;;5056672;28;20116;-84
2022/05/06 01:21:56;;;;;;;23.55;12.80;;;9.20;99.90;;;;;;5030731;28;20036;-84
2022/05/06 01:24:21;;;;;;;21.48;12.68;;;9.20;99.90;;;;;;5041413;28;20401;-84
2022/05/06 01:27:03;;;;;;;19.75;12.60;;;9.20;99.90;;;;;;5047476;28;20040;-84
2022/05/06 01:29:31;;;;;;;22.02;12.60;;;9.10;99.90;;;;;;5039323;28;20048;-84
2022/05/06 01:31:57;;;;;;;20.75;12.48;;;9.00;99.90;;;;;;5040095;28;20098;-84
2022/05/06 01:34:29;;;;;;;22.40;12.85;;;9.00;99.90;;;;;;5056357;28;20140;-84
2022/05/06 01:37:00;;;;;;;21.85;13.80;;;9.00;99.90;;;;;;5057888;28;20032;-84
2022/05/06 01:39:33;;;;;;;20.92;12.73;;;9.00;99.90;;;;;;5048091;28;20365;-84
2022/05/06 01:42:03;;;;;;;21.20;13.57;;;9.00;99.90;;;;;;5039164;28;20032;-83
2022/05/06 01:44:34;;;;;;;21.73;13.00;;;9.20;99.90;;;;;;5052912;28;20105;-84
2022/05/06 01:47:03;;;;;;;23.35;14.38;;;9.00;99.90;;;;;;5055060;28;20072;-84
2022/05/06 01:49:30;;;;;;;23.42;13.90;;;9.00;99.90;;;;;;5045678;28;20040;-84
2022/05/06 01:51:58;;;;;;;23.60;13.90;;;8.90;99.90;;;;;;5041873;28;20036;-84
2022/05/06 01:54:24;;;;;;;21.60;13.95;;;8.90;99.90;;;;;;5042102;28;20047;-84
2022/05/06 01:56:50;;;;;;;21.15;12.80;;;8.90;99.90;;;;;;5047512;28;20036;-84
2022/05/06 01:59:16;;;;;;;22.33;13.30;;;8.90;99.90;;;;;;5055082;28;20035;-83
2022/05/06 02:01:41;;;;;;;24.17;13.18;;;8.80;99.90;;;;;;5010159;28;20028;-84
2022/05/06 02:06:51;;;;;;;22.10;12.48;;;8.80;99.90;;;;;;5041469;28;20040;-84
2022/05/06 02:09:17;;;;;;;22.60;13.00;;;8.80;99.90;;;;;;5028536;28;20167;-84
2022/05/06 02:11:43;;;;;;;22.83;13.65;;;8.80;99.90;;;;;;5035387;28;20047;-84
2022/05/06 02:14:08;;;;;;;21.13;12.63;;;8.70;99.90;;;;;;5042838;28;20045;-84
2022/05/06 02:16:34;;;;;;;21.98;12.40;;;8.70;99.90;;;;;;5055328;28;20191;-84
2022/05/06 02:19:00;;;;;;;24.50;13.65;;;8.70;99.90;;;;;;5039684;28;20040;-84
2022/05/06 02:21:26;;;;;;;20.92;12.05;;;;;;;;;;5045166;28;20127;-83
2022/05/06 02:23:52;;;;;;;25.98;14.95;;;8.70;99.90;;;;;;5062211;28;20039;-84
2022/05/06 02:26:17;;;;;;;27.63;16.60;;;8.70;99.90;;;;;;5037376;28;20401;-83
2022/05/06 02:28:43;;;;;;;30.33;17.42;;;8.70;99.90;;;;;;5055241;28;20052;-83
2022/05/06 02:33:53;;;;;;;27.33;17.25;;;8.80;99.90;;;;;;5037852;28;20075;-83
2022/05/06 02:36:19;;;;;;;27.95;16.55;;;8.90;99.90;;;;;;5027917;28;20079;-84
2022/05/06 02:38:44;;;;;;;35.45;18.33;;;9.00;99.90;;;;;;5037943;28;20044;-84
2022/05/06 02:41:13;;;;;;;30.05;16.85;;;9.00;99.90;;;;;;5030585;28;20141;-83
2022/05/06 02:43:39;;;;;;;33.10;20.55;;;9.00;99.90;;;;;;5046993;28;20044;-84
2022/05/06 02:46:05;;;;;;;39.42;21.80;;;9.00;99.90;;;;;;5031358;28;20416;-84
2022/05/06 02:48:30;;;;;;;33.30;19.48;;;9.20;99.90;;;;;;5035095;28;20036;-84
2022/05/06 02:50:56;;;;;;;29.13;17.95;;;9.00;99.90;;;;;;5032657;28;20524;-84
2022/05/06 02:53:22;;;;;;;42.63;24.20;;;9.10;99.90;;;;;;5045868;28;20064;-84
2022/05/06 02:55:48;;;;;;;39.08;22.27;;;9.10;99.90;;;;;;5037495;28;20103;-84
2022/05/06 02:58:13;;;;;;;35.72;22.02;;;9.00;99.90;;;;;;5059465;28;20040;-83
2022/05/06 03:00:39;;;;;;;34.38;22.48;;;9.00;99.90;;;;;;5046578;28;20040;-84
2022/05/06 03:03:05;;;;;;;37.95;23.55;;;9.00;99.90;;;;;;5042089;28;20041;-84
2022/05/06 03:05:32;;;;;;;36.08;22.25;;;9.20;99.90;;;;;;5044903;28;20072;-83
2022/05/06 03:07:58;;;;;;;35.70;22.25;;;9.00;99.90;;;;;;5042775;28;20055;-84
2022/05/06 03:10:24;;;;;;;40.45;22.90;;;9.00;99.90;;;;;;5026404;28;20040;-83
2022/05/06 03:12:50;;;;;;;34.33;20.73;;;9.00;99.90;;;;;;5052698;28;20510;-84
2022/05/06 03:15:16;;;;;;;39.30;23.48;;;9.10;99.90;;;;;;5038502;28;20054;-84
2022/05/06 03:17:42;;;;;;;39.50;24.17;;;9.10;99.90;;;;;;5046172;28;20048;-84
2022/05/06 03:20:08;;;;;;;36.50;22.08;;;9.10;99.90;;;;;;5029356;28;20040;-84
2022/05/06 03:22:42;;;;;;;38.92;23.08;;;9.10;99.90;;;;;;5030412;28;20064;-84
2022/05/06 03:25:10;;;;;;;37.42;21.75;;;9.30;99.90;;;;;;5057783;28;20455;-83
2022/05/06 03:30:20;;;;;;;38.83;21.70;;;9.00;99.90;;;;;;5046048;28;20033;-84
2022/05/06 03:32:47;;;;;;;36.92;22.35;;;9.00;99.90;;;;;;5034011;28;20501;-84
2022/05/06 03:35:12;;;;;;;36.97;22.73;;;9.00;99.90;;;;;;5040131;28;20056;-84
2022/05/06 03:37:38;;;;;;;34.00;21.67;;;9.00;99.90;;;;;;5060945;28;20041;-84
2022/05/06 03:40:05;;;;;;;35.85;21.92;;;9.10;99.90;;;;;;5013209;28;20033;-83
2022/05/06 03:42:31;;;;;;;36.60;22.98;;;9.00;99.90;;;;;;5048216;28;20489;-84
2022/05/06 03:44:59;;;;;;;32.50;21.50;;;9.10;99.90;;;;;;5046489;28;20179;-84
2022/05/06 03:47:25;;;;;;;38.40;23.48;;;9.10;99.90;;;;;;5039783;28;20603;-84
2022/05/06 03:52:37;;;;;;;38.45;22.85;;;9.20;99.90;;;;;;5044002;28;20486;-84
2022/05/06 03:55:03;;;;;;;43.55;24.17;;;9.20;99.90;;;;;;5031797;28;20048;-84
2022/05/06 03:57:29;;;;;;;40.85;25.25;;;9.30;99.90;;;;;;5048195;28;20036;-84
2022/05/06 03:59:54;;;;;;;41.97;25.55;;;9.30;99.90;;;;;;5046574;28;20098;-84
2022/05/06 04:02:20;;;;;;;41.63;24.67;;;9.30;99.90;;;;;;5049706;28;20024;-84
2022/05/06 04:04:46;;;;;;;43.50;26.25;;;9.40;99.90;;;;;;5040473;28;20391;-83
2022/05/06 04:07:14;;;;;;;41.72;25.27;;;9.40;99.90;;;;;;5042648;28;20466;-84
2022/05/06 04:09:41;;;;;;;44.30;25.70;;;9.40;99.90;;;;;;5045559;28;20036;-83
2022/05/06 04:12:09;;;;;;;52.28;29.17;;;9.50;99.90;;;;;;5033478;28;20102;-84
2022/05/06 04:14:35;;;;;;;49.03;28.77;;;9.50;99.90;;;;;;5027432;28;20143;-84
2022/05/06 04:17:03;;;;;;;48.85;28.38;;;9.50;99.90;;;;;;5046496;28;20170;-84
2022/05/06 04:19:30;;;;;;;46.85;27.50;;;9.50;99.90;;;;;;5041684;28;20037;-84
2022/05/06 04:24:39;;;;;;;48.85;27.80;;;9.60;99.90;;;;;;5058790;28;20125;-84
2022/05/06 04:27:06;;;;;;;44.72;26.70;;;9.60;99.90;;;;;;5024750;28;20727;-83
2022/05/06 04:29:32;;;;;;;44.42;26.98;;;9.60;99.90;;;;;;5028270;28;20501;-84
2022/05/06 04:31:57;;;;;;;47.47;27.58;;;10.30;99.90;;;;;;5034928;28;20040;-84
2022/05/06 04:34:23;;;;;;;39.45;24.95;;;9.60;99.90;;;;;;5008570;28;20044;-84
2022/05/06 04:36:49;;;;;;;39.38;24.42;;;9.60;99.90;;;;;;5045433;28;20064;-83
2022/05/06 04:39:16;;;;;;;39.40;23.92;;;9.70;99.90;;;;;;5012739;28;20040;-83
2022/05/06 04:41:43;;;;;;;39.10;22.25;;;9.60;99.90;;;;;;5037530;28;20150;-83
2022/05/06 04:44:09;;;;;;;37.83;21.23;;;9.60;99.90;;;;;;5054535;28;20052;-84
2022/05/06 04:46:34;;;;;;;35.83;21.27;;;9.80;99.90;;;;;;5028287;28;20036;-84
2022/05/06 04:49:00;;;;;;;33.20;21.08;;;9.60;99.90;;;;;;5048845;28;20037;-84
2022/05/06 04:51:26;;;;;;;34.15;20.50;;;9.60;99.90;;;;;;5029342;28;20040;-84
2022/05/06 04:53:54;;;;;;;30.45;19.27;;;9.70;99.90;;;;;;5031678;28;20036;-83
2022/05/06 04:56:22;;;;;;;30.98;20.33;;;9.70;99.90;;;;;;5029527;28;20123;-84
2022/05/06 04:58:48;;;;;;;30.98;20.45;;;9.70;99.90;;;;;;5030054;28;20044;-83
2022/05/06 05:01:13;;;;;;;36.13;22.60;;;9.70;99.90;;;;;;5052499;28;20497;-84
2022/05/06 05:03:39;;;;;;;37.30;22.55;;;9.70;99.90;;;;;;5040200;28;20037;-83
2022/05/06 05:06:07;;;;;;;32.88;20.23;;;9.70;99.90;;;;;;5054518;28;20071;-83
2022/05/06 05:08:33;;;;;;;35.65;21.60;;;9.70;99.90;;;;;;5054957;28;20402;-83
2022/05/06 05:11:02;;;;;;;32.15;21.27;;;9.80;99.90;;;;;;5058072;28;20098;-83
2022/05/06 05:13:34;;;;;;;37.85;23.60;;;9.80;99.90;;;;;;5045678;28;20673;-83
2022/05/06 05:16:00;;;;;;;34.90;22.35;;;9.80;99.90;;;;;;5030209;28;20505;-83
2022/05/06 05:18:26;;;;;;;32.42;21.20;;;9.80;99.90;;;;;;5045540;28;20067;-83
2022/05/06 05:20:51;;;;;;;36.22;23.02;;;9.80;99.90;;;;;;5038924;28;20090;-83
2022/05/06 05:23:17;;;;;;;43.65;24.42;;;9.80;99.90;;;;;;5050446;28;20123;-84
2022/05/06 05:25:43;;;;;;;39.63;23.73;;;9.80;99.90;;;;;;5042752;28;20054;-84
2022/05/06 05:28:09;;;;;;;39.42;23.42;;;9.80;99.90;;;;;;5039362;28;20095;-84
2022/05/06 05:30:35;;;;;;;37.45;22.38;;;9.80;99.90;;;;;;5040946;28;20036;-84
2022/05/06 05:33:02;;;;;;;31.67;20.73;;;10.10;99.90;;;;;;5045310;28;20126;-84
2022/05/06 05:35:29;;;;;;;29.65;18.90;;;9.80;99.90;;;;;;5058379;28;20059;-84
2022/05/06 05:37:55;;;;;;;44.97;20.48;;;9.80;99.90;;;;;;5040356;28;20041;-84
2022/05/06 05:40:21;;;;;;;34.00;19.88;;;9.80;99.90;;;;;;5029110;28;20192;-84
2022/05/06 05:42:47;;;;;;;39.00;19.98;;;9.80;99.90;;;;;;5029501;28;20033;-84
2022/05/06 05:50:40;;;;;;;38.75;19.02;;;10.10;99.90;;;;;;5042903;28;20132;-83
2022/05/06 05:53:06;;;;;;;34.60;18.80;;;10.40;99.90;;;;;;5052155;28;20119;-84
2022/05/06 05:55:32;;;;;;;28.70;17.48;;;10.20;99.90;;;;;;5030169;28;20498;-84
2022/05/06 05:57:58;;;;;;;38.53;20.15;;;10.30;99.90;;;;;;5033701;28;20033;-84
2022/05/06 06:00:23;;;;;;;32.40;18.92;;;10.30;99.90;;;;;;5055037;28;20037;-85
2022/05/06 06:02:49;;;;;;;34.03;19.70;;;10.30;99.90;;;;;;5023063;28;20504;-85
2022/05/06 06:05:15;;;;;;;31.88;17.95;;;10.60;99.90;;;;;;5030515;28;20163;-84
2022/05/06 06:07:41;;;;;;;35.67;19.73;;;10.40;99.90;;;;;;5011562;28;20033;-83
2022/05/06 06:10:08;;;;;;;36.60;20.27;;;10.40;99.90;;;;;;5030127;28;20055;-85
2022/05/06 06:12:34;;;;;;;35.25;21.00;;;10.40;99.90;;;;;;5021450;28;20041;-84
2022/05/06 06:15:00;;;;;;;41.78;21.88;;;10.40;99.90;;;;;;5032932;28;20098;-85
2022/05/06 06:17:27;;;;;;;37.05;21.10;;;10.40;99.90;;;;;;5029908;28;20037;-85
2022/05/06 06:19:52;;;;;;;37.38;21.38;;;10.40;99.90;;;;;;5019175;28;20041;-83
2022/05/06 06:22:18;;;;;;;36.13;21.17;;;10.50;99.90;;;;;;5027990;28;20037;-83
2022/05/06 06:24:44;;;;;;;41.58;23.65;;;10.50;99.90;;;;;;5046918;28;20068;-85
2022/05/06 06:27:10;;;;;;;37.63;22.95;;;10.50;99.90;;;;;;5027667;28;20044;-83
2022/05/06 06:29:35;;;;;;;39.67;23.48;;;10.50;99.90;;;;;;5026261;28;20041;-83
2022/05/06 06:32:02;;;;;;;44.88;24.38;;;11.30;99.90;;;;;;5041075;28;20056;-84
2022/05/06 06:34:28;;;;;;;46.25;27.13;;;10.70;99.90;;;;;;5040720;28;20513;-83
2022/05/06 06:36:54;;;;;;;41.58;24.77;;;10.70;99.90;;;;;;5060062;28;20028;-83
2022/05/06 06:39:19;;;;;;;41.80;24.63;;;10.80;99.90;;;;;;5029713;28;20044;-84
2022/05/06 06:41:45;;;;;;;40.45;25.48;;;10.80;99.90;;;;;;5018820;28;20111;-84
2022/05/06 06:44:11;;;;;;;42.65;24.80;;;10.80;99.90;;;;;;5041455;28;20048;-84
2022/05/06 06:46:36;;;;;;;41.70;25.17;;;10.80;99.90;;;;;;5015759;28;20496;-83
2022/05/06 06:49:02;;;;;;;40.78;26.23;;;10.90;99.90;;;;;;5048081;28;20471;-83
2022/05/06 06:51:28;;;;;;;43.08;25.60;;;11.20;99.90;;;;;;5026000;28;20091;-84
2022/05/06 06:53:53;;;;;;;41.22;26.10;;;11.00;99.90;;;;;;5030279;28;20034;-85
2022/05/06 06:56:22;;;;;;;43.05;25.92;;;11.10;99.90;;;;;;5015110;28;20094;-83
2022/05/06 06:58:48;;;;;;;40.78;25.65;;;11.30;99.90;;;;;;5060461;28;20072;-84
2022/05/06 07:01:14;;;;;;;40.90;25.23;;;11.50;99.90;;;;;;5024430;28;20065;-84
2022/05/06 07:03:40;;;;;;;41.40;25.30;;;11.60;99.90;;;;;;5050153;28;20036;-85
2022/05/06 07:14:18;;;;;;;42.72;25.50;;;12.50;99.90;;;;;;5057289;28;20056;-85
2022/05/06 07:16:44;;;;;;;39.92;24.98;;;11.80;99.90;;;;;;5064277;28;20051;-85
2022/05/06 07:19:09;;;;;;;37.60;23.40;;;11.90;99.90;;;;;;5046249;28;20045;-84
2022/05/06 07:21:35;;;;;;;36.40;23.00;;;12.00;99.90;;;;;;5014040;28;20060;-84
2022/05/06 07:24:01;;;;;;;34.05;22.40;;;12.20;99.90;;;;;;5056322;28;20048;-83
2022/05/06 07:26:27;;;;;;;29.88;19.80;;;12.30;99.90;;;;;;5038379;28;20037;-85
2022/05/06 07:28:53;;;;;;;27.77;18.77;;;12.40;99.90;;;;;;5042916;28;20036;-85
2022/05/06 07:31:18;;;;;;;30.38;19.75;;;12.50;99.90;;;;;;5027397;28;20062;-85
2022/05/06 07:33:44;;;;;;;30.75;19.55;;;12.80;99.90;;;;;;5042715;28;20041;-86
2022/05/06 07:36:10;;;;;;;28.55;18.95;;;12.60;99.90;;;;;;5040730;28;20106;-84
2022/05/06 07:38:35;;;;;;;29.20;19.00;;;12.60;99.90;;;;;;5031431;28;20488;-84
2022/05/06 07:41:03;;;;;;;32.55;21.35;;;12.60;99.90;;;;;;5039689;28;20090;-83
2022/05/06 07:43:29;;;;;;;29.98;20.05;;;12.60;99.90;;;;;;5040369;28;20037;-85
2022/05/06 07:45:55;;;;;;;30.33;19.85;;;12.70;99.90;;;;;;5041544;28;20041;-85
2022/05/06 07:48:21;;;;;;;31.45;20.45;;;12.80;99.90;;;;;;5054687;28;20059;-84
2022/05/06 07:50:47;;;;;;;28.38;18.73;;;12.90;99.90;;;;;;5028327;28;20033;-85
2022/05/06 07:53:14;;;;;;;30.25;20.23;;;13.00;99.90;;;;;;5038535;28;20045;-84
2022/05/06 07:55:40;;;;;;;30.23;19.30;;;13.10;99.90;;;;;;5048512;28;20036;-84
2022/05/06 07:58:06;;;;;;;28.63;19.05;;;13.30;99.90;;;;;;5021384;28;20060;-84
2022/05/06 08:00:32;;;;;;;31.38;20.83;;;13.40;99.90;;;;;;5023594;28;20473;-86
2022/05/06 08:05:44;;;;;;;31.10;20.33;;;13.70;99.90;;;;;;5038120;28;20048;-83
2022/05/06 08:08:10;;;;;;;31.67;20.00;;;13.90;99.90;;;;;;5059696;28;20115;-83
2022/05/06 08:10:35;;;;;;;29.38;17.73;;;13.80;99.90;;;;;;5024175;28;20488;-84
2022/05/06 08:13:02;;;;;;;28.20;17.85;;;14.00;99.90;;;;;;5012766;28;20045;-83
2022/05/06 08:15:27;;;;;;;26.85;17.65;;;14.00;99.90;;;;;;5024455;28;20131;-84
2022/05/06 08:17:53;;;;;;;25.27;16.10;;;14.10;99.90;;;;;;5032054;28;20131;-83
2022/05/06 08:20:19;;;;;;;25.67;16.58;;;14.20;99.90;;;;;;5030384;28;20045;-83
2022/05/06 08:22:45;;;;;;;26.20;17.13;;;14.30;99.90;;;;;;5040442;28;20604;-83
2022/05/06 08:25:11;;;;;;;25.38;16.08;;;14.40;99.90;;;;;;5042622;28;20040;-83
2022/05/06 08:27:41;;;;;;;23.85;15.15;;;14.50;99.90;;;;;;5049439;28;20040;-83
2022/05/06 08:30:08;;;;;;;25.35;16.33;;;14.70;99.90;;;;;;5026626;28;20076;-83
2022/05/06 08:32:34;;;;;;;23.42;15.27;;;14.80;99.90;;;;;;5058644;28;20044;-83
2022/05/06 08:35:00;;;;;;;23.23;14.75;;;15.00;99.90;;;;;;5031038;28;20052;-83
2022/05/06 08:37:26;;;;;;;24.88;14.70;;;15.10;99.90;;;;;;5049800;28;20047;-83
2022/05/06 08:39:52;;;;;;;22.17;14.60;;;15.10;99.90;;;;;;5037754;28;20048;-82
2022/05/06 08:42:22;;;;;;;20.83;13.82;;;15.10;99.90;;;;;;5061076;28;20554;-82
2022/05/06 08:53:08;;;;;;;19.17;11.95;;;15.10;99.90;;;;;;5067834;28;20150;-83
2022/05/06 08:55:33;;;;;;;18.42;11.48;;;15.40;99.90;;;;;;5057845;28;20119;-83
2022/05/06 08:57:59;;;;;;;18.38;12.05;;;15.50;99.90;;;;;;5045085;28;20066;-84
2022/05/06 09:00:27;;;;;;;18.75;10.90;;;15.50;99.90;;;;;;5035059;28;20052;-83
2022/05/06 09:02:53;;;;;;;19.67;12.23;;;15.60;99.90;;;;;;5043445;28;20050;-84
2022/05/06 09:05:20;;;;;;;21.13;12.63;;;15.80;99.90;;;;;;5054444;28;20095;-85
2022/05/06 09:07:55;;;;;;;16.75;10.70;;;16.10;99.90;;;;;;5042319;28;20050;-84
2022/05/06 09:10:21;;;;;;;14.40;9.02;;;16.10;99.90;;;;;;5044729;28;20044;-84
2022/05/06 09:12:52;;;;;;;15.63;10.02;;;16.20;99.90;;;;;;5036641;28;20040;-84
2022/05/06 09:18:05;;;;;;;15.98;9.80;;;16.70;99.90;;;;;;5046539;28;20482;-84
2022/05/06 09:20:31;;;;;;;14.20;8.80;;;16.80;99.90;;;;;;5061128;28;20469;-84
2022/05/06 09:22:57;;;;;;;13.52;8.98;;;16.90;99.90;;;;;;5049678;28;20501;-83
2022/05/06 09:25:45;;;;;;;14.57;8.25;;;17.00;99.90;;;;;;5043234;28;20037;-83
2022/05/06 09:28:20;;;;;;;12.63;7.10;;;17.00;99.90;;;;;;5058902;28;20082;-84
2022/05/06 09:31:08;;;;;;;11.60;7.20;;;17.00;99.90;;;;;;5048477;28;20094;-85
2022/05/06 09:33:41;;;;;;;11.60;7.32;;;16.90;99.90;;;;;;5047461;28;20048;-84
2022/05/06 09:36:29;;;;;;;12.65;8.05;;;16.90;99.90;;;;;;5038084;28;20037;-83
2022/05/06 09:39:01;;;;;;;11.15;6.93;;;16.90;99.90;;;;;;5059497;28;20036;-84
2022/05/06 09:41:27;;;;;;;;;;;17.10;99.90;;;;;;5053322;28;20054;-84
2022/05/06 09:44:00;;;;;;;11.55;7.07;;;17.20;99.90;;;;;;5034113;28;20435;-84
2022/05/06 09:46:26;;;;;;;11.88;7.05;;;17.50;99.90;;;;;;5052098;28;20048;-84
2022/05/06 09:48:56;;;;;;;11.27;6.57;;;17.60;99.90;;;;;;5052941;28;20040;-84
2022/05/06 09:51:33;;;;;;;11.43;6.75;;;17.70;99.90;;;;;;5047769;28;20128;-83
2022/05/06 09:54:00;;;;;;;10.45;6.10;;;17.70;99.90;;;;;;5056467;28;20041;-84
2022/05/06 09:56:27;;;;;;;10.70;6.03;;;17.90;99.90;;;;;;5060040;28;20040;-83
2022/05/06 09:58:53;;;;;;;10.50;6.10;;;17.90;99.90;;;;;;5044173;28;20106;-83
2022/05/06 10:01:20;;;;;;;12.63;6.40;;;18.00;99.90;;;;;;5028282;28;21808;-85
2022/05/06 10:03:47;;;;;;;9.52;5.57;;;18.20;99.90;;;;;;5060856;28;20109;-84
2022/05/06 10:06:13;;;;;;;9.95;5.25;;;18.40;99.90;;;;;;5042574;28;20521;-85
2022/05/06 10:08:47;;;;;;;10.18;5.40;;;18.50;99.90;;;;;;5030194;28;20401;-85
2022/05/06 10:11:14;;;;;;;10.80;5.47;;;18.50;99.90;;;;;;5058328;28;20048;-85
2022/05/06 10:13:46;;;;;;;9.80;5.35;;;18.60;99.90;;;;;;5067156;28;20063;-85
2022/05/06 10:16:12;;;;;;;9.18;5.10;;;18.80;99.90;;;;;;5043403;28;20084;-85
2022/05/06 10:18:42;;;;;;;10.82;4.15;;;18.90;99.90;;;;;;5035995;28;20044;-85
2022/05/06 10:21:11;;;;;;;8.70;4.20;;;18.90;99.90;;;;;;5043881;28;20037;-85
2022/05/06 10:23:47;;;;;;;8.75;4.47;;;18.80;99.90;;;;;;5056400;28;20061;-85
2022/05/06 10:26:35;;;;;;;8.60;4.47;;;18.70;99.90;;;;;;5048933;28;20128;-85
2022/05/06 10:34:55;;;;;;;9.82;4.90;;;18.80;99.90;;;;;;5052871;28;20045;-85
2022/05/06 10:37:21;;;;;;;10.13;4.72;;;18.80;99.90;;;;;;5044052;28;20040;-85
2022/05/06 10:39:47;;;;;;;10.02;5.60;;;18.90;99.90;;;;;;5034791;28;20037;-84
2022/05/06 10:42:17;;;;;;;9.15;4.90;;;18.90;99.90;;;;;;5048931;28;20048;-84
2022/05/06 10:44:50;;;;;;;8.77;4.30;;;18.90;99.90;;;;;;5056613;28;20267;-86
2022/05/06 10:47:16;;;;;;;9.60;4.30;;;19.00;99.90;;;;;;5029209;28;20076;-85
2022/05/06 10:49:43;;;;;;;9.32;4.68;;;19.10;99.90;;;;;;5047495;28;20080;-85
2022/05/06 10:54:47;;;;;;;9.32;4.60;;;19.40;99.90;;;;;;5065725;28;20420;-86
2022/05/06 10:57:18;;;;;;;10.57;4.78;;;19.50;99.90;;;;;;5060711;28;20044;-85
2022/05/06 10:59:50;;;;;;;9.95;4.90;;;19.60;99.90;;;;;;5050136;28;20033;-85
2022/05/06 11:02:16;;;;;;;12.82;4.75;;;19.60;99.90;;;;;;5045222;28;20089;-85
2022/05/06 11:04:51;;;;;;;11.07;5.03;;;19.70;99.90;;;;;;5025756;28;20042;-85
2022/05/06 11:07:17;;;;;;;11.27;4.38;;;19.70;99.90;;;;;;5028377;28;20063;-85
2022/05/06 11:09:44;;;;;;;9.65;4.30;;;19.80;99.90;;;;;;5060416;28;20540;-86
2022/05/06 11:12:10;;;;;;;8.35;3.80;;;19.80;99.90;;;;;;5036676;28;20040;-85
2022/05/06 11:14:36;;;;;;;8.52;3.90;;;19.80;99.90;;;;;;5041385;28;20061;-86
2022/05/06 11:17:18;;;;;;;8.20;4.28;;;19.90;99.90;;;;;;5030873;28;20191;-86
2022/05/06 11:19:45;;;;;;;7.85;3.80;;;19.70;99.90;;;;;;5046964;28;20469;-85
2022/05/06 11:22:11;;;;;;;8.13;3.38;;;19.70;99.90;;;;;;5054816;28;20040;-85
2022/05/06 11:24:37;;;;;;;7.47;3.28;;;19.80;99.90;;;;;;5008288;28;20448;-84
2022/05/06 11:27:20;;;;;;;7.60;3.15;;;19.80;99.90;;;;;;5042921;28;20036;-85
2022/05/06 11:29:56;;;;;;;;;;;20.00;99.90;;;;;;5046743;28;20041;-84
2022/05/06 11:32:29;;;;;;;7.60;3.40;;;20.00;99.90;;;;;;5052761;28;20162;-86
2022/05/06 11:34:57;;;;;;;8.25;3.38;;;19.90;99.90;;;;;;5034974;28;20041;-84
2022/05/06 11:37:36;;;;;;;7.90;3.15;;;20.00;99.90;;;;;;5038269;28;20037;-84
2022/05/06 11:40:32;;;;;;;10.90;3.38;;;20.20;99.90;;;;;;5043878;28;20044;-85
2022/05/06 11:43:04;;;;;;;7.95;3.38;;;20.30;99.90;;;;;;5046651;28;20505;-85
2022/05/06 11:48:16;;;;;;;8.93;3.35;;;20.50;99.90;;;;;;5038118;28;20041;-85
2022/05/06 11:50:43;;;;;;;7.45;3.53;;;20.60;99.90;;;;;;5057930;28;20044;-85
2022/05/06 11:53:11;;;;;;;6.95;2.70;;;20.60;99.90;;;;;;5043699;28;20076;-85
2022/05/06 11:55:40;;;;;;;6.47;2.63;;;20.60;99.90;;;;;;5060954;28;20464;-85
2022/05/06 11:58:07;;;;;;;7.55;2.80;;;20.60;99.90;;;;;;5057698;28;20079;-85
2022/05/06 12:00:34;;;;;;;7.35;3.08;;;20.60;99.90;;;;;;5046448;28;20036;-84
2022/05/06 12:03:05;;;;;;;6.70;2.80;;;20.60;99.90;;;;;;5050777;28;20035;-85
2022/05/06 12:05:35;;;;;;;7.82;2.90;;;20.70;99.90;;;;;;5047597;28;20072;-85
2022/05/06 12:08:01;;;;;;;7.85;2.60;;;20.70;99.90;;;;;;5050586;28;20048;-84
2022/05/06 12:10:28;;;;;;;6.35;2.35;;;20.90;99.90;;;;;;5043733;28;20071;-85
2022/05/06 12:12:59;;;;;;;6.80;2.60;;;20.80;99.90;;;;;;5057822;28;20037;-84
2022/05/06 12:15:32;;;;;;;6.75;2.58;;;20.60;99.90;;;;;;5046688;28;20045;-85
2022/05/06 12:18:25;;;;;;;7.22;2.88;;;20.70;99.90;;;;;;5025245;28;20036;-84
2022/05/06 12:20:51;;;;;;;7.72;3.05;;;20.90;99.90;;;;;;5052125;28;20690;-84
2022/05/06 12:23:27;;;;;;;7.03;2.63;;;21.00;99.90;;;;;;5028643;28;20036;-85
2022/05/06 12:25:54;;;;;;;6.10;2.47;;;21.00;99.90;;;;;;5040921;28;20036;-84
2022/05/06 12:28:20;;;;;;;6.10;2.30;;;20.90;99.90;;;;;;5028883;28;20170;-82
2022/05/06 12:30:54;;;;;;;7.15;2.70;;;21.00;99.90;;;;;;5061704;28;20044;-84
2022/05/06 12:33:19;;;;;;;8.18;2.60;;;21.20;99.90;;;;;;5028329;28;20044;-84
2022/05/06 12:36:01;;;;;;;8.63;3.08;;;21.30;99.90;;;;;;5025490;28;20044;-85
2022/05/06 12:38:46;;;;;;;7.43;2.88;;;21.30;99.90;;;;;;5040717;28;20033;-86
2022/05/06 12:41:19;;;;;;;8.38;3.15;;;20.70;99.90;;;;;;5038464;28;20125;-84
2022/05/06 12:43:45;;;;;;;7.10;2.85;;;20.40;99.90;;;;;;5041015;28;20115;-84
2022/05/06 12:46:22;;;;;;;8.90;2.58;;;20.50;99.90;;;;;;5055893;28;20072;-85
2022/05/06 12:51:32;;;;;;;6.43;2.28;;;21.00;99.90;;;;;;5047903;28;20040;-85
2022/05/06 12:53:58;;;;;;;7.22;2.85;;;21.30;99.90;;;;;;5025825;28;20098;-84
2022/05/06 12:56:24;;;;;;;9.27;2.50;;;21.40;99.90;;;;;;5042339;28;20090;-83
2022/05/06 12:58:49;;;;;;;6.00;2.28;;;21.40;99.90;;;;;;5042834;28;20043;-85
2022/05/06 13:01:15;;;;;;;5.60;2.08;;;21.60;99.90;;;;;;5009836;28;20167;-83
2022/05/06 13:03:42;;;;;;;5.90;2.10;;;21.80;99.90;;;;;;5028433;28;20040;-85
2022/05/06 13:06:08;;;;;;;5.60;2.00;;;22.00;99.90;;;;;;5012355;28;20477;-84
2022/05/06 13:08:34;;;;;;;6.95;2.08;;;22.20;99.90;;;;;;5048774;28;20033;-86
2022/05/06 13:11:00;;;;;;;5.55;1.90;;;22.20;99.90;;;;;;5030871;28;20461;-84
2022/05/06 13:13:25;;;;;;;5.45;2.05;;;22.40;99.90;;;;;;5040463;28;20047;-86
2022/05/06 13:15:51;;;;;;;8.68;2.30;;;22.60;99.90;;;;;;5034177;28;20497;-85
2022/05/06 13:18:17;;;;;;;6.05;2.00;;;22.80;99.90;;;;;;5032109;28;20110;-85
2022/05/06 13:20:44;;;;;;;6.72;2.00;;;22.80;99.90;;;;;;5032691;28;20037;-85
2022/05/06 13:23:10;;;;;;;5.70;2.00;;;22.30;99.90;;;;;;5026882;28;20036;-84
2022/05/06 13:25:36;;;;;;;5.75;1.98;;;22.00;99.90;;;;;;5040445;28;20036;-85
2022/05/06 13:28:02;;;;;;;7.50;2.25;;;21.90;99.90;;;;;;5031298;28;20088;-86
2022/05/06 13:30:27;;;;;;;5.68;2.10;;;21.90;99.90;;;;;;5020817;28;20446;-84
2022/05/06 13:32:53;;;;;;;5.70;2.03;;;21.60;99.90;;;;;;5038396;28;20417;-84
2022/05/06 13:35:19;;;;;;;8.07;2.22;;;21.50;99.90;;;;;;5041983;28;20123;-84